Time;durP1;ratioP1;P1;durP2;ratioP2;P2;SDS_P1;SDS_P2;PMS_P1;PMS_P2;Temp;Humidity;BMP_temperature;BMP_pressure;BME280_temperature;BME280_humidity;BME280_pressure;Samples;Min_cycle;Max_cycle;Signal;HPM_P1;HPM_P2
2023/10/14 00:02:21;;;;;;;2.63;1.50;;;;;;;-143.90;100.00;65065.84;6244356;23;20022;-80
2023/10/14 00:08:12;;;;;;;2.40;1.27;;;;;;;-143.90;100.00;65065.84;6240475;23;20042;-82
2023/10/14 00:10:38;;;;;;;1.70;1.13;;;;;;;-143.90;100.00;65065.84;6244447;22;20008;-83
2023/10/14 00:13:04;;;;;;;2.42;1.10;;;;;;;-143.90;100.00;65065.84;6268417;22;20008;-82
2023/10/14 00:18:51;;;;;;;3.10;1.55;;;;;;;-143.90;100.00;65065.84;6241506;23;20386;-82
2023/10/14 00:24:39;;;;;;;5.43;1.60;;;;;;;-143.90;100.00;65065.84;6244407;23;20361;-81
2023/10/14 00:30:28;;;;;;;2.08;1.00;;;;;;;-143.90;100.00;65065.84;6249692;23;20069;-81
2023/10/14 00:36:45;;;;;;;1.33;0.90;;;;;;;-143.90;100.00;65065.84;6241494;22;20026;-80
2023/10/14 01:20:42;;;;;;;5.65;1.70;;;;;;;-143.90;100.00;65065.84;6083221;23;20063;-82
2023/10/14 01:33:24;;;;;;;7.43;2.10;;;;;;;-143.90;100.00;65065.84;6109512;22;20035;-83
2023/10/14 01:39:46;;;;;;;5.93;1.98;;;;;;;-143.90;100.00;65065.84;6244444;22;20023;-83
2023/10/14 01:42:07;;;;;;;6.68;2.17;;;;;;;-143.90;100.00;65065.84;6241937;23;20012;-85
2023/10/14 01:44:36;;;;;;;7.70;1.88;;;;;;;-143.90;100.00;65065.84;6244347;23;20368;-84
2023/10/14 01:47:10;;;;;;;6.50;2.03;;;;;;;-143.90;100.00;65065.84;6267977;22;20341;-86
2023/10/14 01:49:42;;;;;;;7.30;3.22;;;;;;;-143.90;100.00;65065.84;6241636;22;20086;-84
2023/10/14 01:52:19;;;;;;;13.85;3.25;;;;;;;-143.90;100.00;65065.84;6268290;22;20433;-85
2023/10/14 01:58:22;;;;;;;10.82;2.30;;;;;;;-143.90;100.00;65065.84;6243974;23;20091;-84
2023/10/14 02:01:19;;;;;;;10.95;2.75;;;;;;;-143.90;100.00;65065.84;6214987;23;20012;-86
2023/10/14 02:38:30;;;;;;;7.32;2.72;;;;;;;-143.90;100.00;65065.84;6034656;23;20030;-85
2023/10/14 02:58:09;;;;;;;14.75;3.53;;;;;;;-143.90;100.00;65065.84;6171640;23;20096;-84
2023/10/14 03:04:21;;;;;;;11.43;2.95;;;;;;;-143.90;100.00;65065.84;6218018;23;20026;-85
2023/10/14 03:21:58;;;;;;;;;;;;;;;;;;;;;
2023/10/14 03:27:19;;;;;;;16.33;3.50;;;;;;;-143.90;100.00;65065.84;6014520;23;20038;-85
2023/10/14 03:29:53;;;;;;;14.13;2.90;;;;;;;-143.90;100.00;65065.84;6064210;23;20082;-83
2023/10/14 03:32:25;;;;;;;11.30;2.75;;;;;;;-143.90;100.00;65065.84;6171481;23;20012;-84
2023/10/14 03:34:52;;;;;;;10.52;2.63;;;;;;;-143.90;100.00;65065.84;6243233;23;20004;-81
2023/10/14 03:37:25;;;;;;;13.80;2.50;;;;;;;-143.90;100.00;65065.84;6206354;23;20008;-84
2023/10/14 03:43:20;;;;;;;10.93;3.80;;;;;;;-143.90;100.00;65065.84;6244663;22;20022;-84
2023/10/14 03:49:38;;;;;;;13.23;2.65;;;;;;;-143.90;100.00;65065.84;6244868;23;20019;-85
2023/10/14 04:18:59;;;;;;;12.85;3.17;;;;;;;-143.90;100.00;65065.84;6244598;23;20011;-81
2023/10/14 04:21:35;;;;;;;12.13;3.03;;;;;;;-143.90;100.00;65065.84;6242321;23;20023;-81
2023/10/14 04:24:12;;;;;;;11.10;2.60;;;;;;;-143.90;100.00;65065.84;6244395;23;20008;-81
2023/10/14 04:26:41;;;;;;;16.73;2.78;;;;;;;-143.90;100.00;65065.84;6262516;22;20015;-81
2023/10/14 04:32:28;;;;;;;12.57;2.55;;;;;;;-143.90;100.00;65065.84;6244526;22;20082;-80
2023/10/14 04:38:16;;;;;;;11.10;2.78;;;;;;;-143.90;100.00;65065.84;6244315;23;20078;-77
2023/10/14 04:44:04;;;;;;;12.80;2.58;;;;;;;-143.90;100.00;65065.84;6244343;22;20070;-79
2023/10/14 04:49:16;;;;;;;13.43;3.40;;;;;;;-143.90;100.00;65065.84;6244271;23;20073;-81
2023/10/14 04:51:48;;;;;;;19.55;2.70;;;;;;;-143.90;100.00;65065.84;6261801;22;20099;-80
2023/10/14 04:57:40;;;;;;;10.38;3.03;;;;;;;-143.90;100.00;65065.84;6243675;22;20019;-80
2023/10/14 05:03:31;;;;;;;12.68;3.03;;;;;;;-143.90;100.00;65065.84;6244336;23;20063;-81
2023/10/14 05:05:58;;;;;;;12.63;3.20;;;;;;;-143.90;100.00;65065.84;6237869;23;20083;-80
2023/10/14 05:08:44;;;;;;;17.67;3.55;;;;;;;-143.90;100.00;65065.84;6267637;22;20027;-80
2023/10/14 05:11:12;;;;;;;18.83;3.70;;;;;;;-143.90;100.00;65065.84;6243196;22;20013;-81
2023/10/14 05:17:05;;;;;;;10.57;3.67;;;;;;;-143.90;100.00;65065.84;6244247;23;20051;-81
2023/10/14 05:19:41;;;;;;;16.98;3.58;;;;;;;-143.90;100.00;65065.84;6244197;22;20001;-79
2023/10/14 05:22:13;;;;;;;9.25;2.65;;;;;;;-143.90;100.00;65065.84;6268185;22;20018;-80
2023/10/14 05:24:45;;;;;;;16.00;2.95;;;;;;;-143.90;100.00;65065.84;6243258;23;20008;-82
2023/10/14 05:30:35;;;;;;;13.68;3.08;;;;;;;-143.90;100.00;65065.84;6244158;23;20058;-79
2023/10/14 05:36:21;;;;;;;11.90;2.85;;;;;;;-143.90;100.00;65065.84;6243132;23;20451;-80
2023/10/14 05:38:47;;;;;;;14.05;2.80;;;;;;;-143.90;100.00;65065.84;6243915;22;20074;-79
2023/10/14 05:44:33;;;;;;;18.35;2.83;;;;;;;-143.90;100.00;65065.84;6243971;22;20023;-79
2023/10/14 05:50:21;;;;;;;20.60;3.67;;;;;;;-143.90;100.00;65065.84;6244037;23;20018;-78
2023/10/14 05:56:14;;;;;;;21.10;3.40;;;;;;;-143.90;100.00;65065.84;6244074;22;20389;-78
2023/10/14 06:02:01;;;;;;;10.70;3.15;;;;;;;-143.90;100.00;65065.84;6244016;23;20352;-78
2023/10/14 06:07:47;;;;;;;12.23;3.55;;;;;;;-143.90;100.00;65065.84;6244005;23;20055;-78
2023/10/14 06:13:35;;;;;;;10.07;3.78;;;;;;;-143.90;100.00;65065.84;6243670;22;20019;-78
2023/10/14 06:19:22;;;;;;;10.00;3.05;;;;;;;-143.90;100.00;65065.84;6244720;23;20019;-75
2023/10/14 06:25:15;;;;;;;11.48;2.88;;;;;;;-143.90;100.00;65065.84;6244282;22;20067;-77
2023/10/14 06:31:04;;;;;;;10.30;3.10;;;;;;;-143.90;100.00;65065.84;6244705;23;20098;-77
2023/10/14 06:36:50;;;;;;;10.20;2.53;;;;;;;-143.90;100.00;65065.84;6245214;23;20063;-78
2023/10/14 06:42:43;;;;;;;13.48;2.80;;;;;;;-143.90;100.00;65065.84;6244665;23;20043;-76
2023/10/14 06:45:08;;;;;;;13.07;3.72;;;;;;;-143.90;100.00;65065.84;6244046;23;20012;-76
2023/10/14 06:50:56;;;;;;;10.38;2.97;;;;;;;-143.90;100.00;65065.84;6244860;23;20023;-76
2023/10/14 06:56:45;;;;;;;11.07;2.75;;;;;;;-143.90;100.00;65065.84;6244232;22;20019;-77
2023/10/14 07:02:32;;;;;;;11.50;2.60;;;;;;;-143.90;100.00;65065.84;6244808;23;20310;-76
2023/10/14 07:08:19;;;;;;;12.88;3.03;;;;;;;-143.90;100.00;65065.84;6244865;23;20103;-75
2023/10/14 07:14:08;;;;;;;15.32;3.28;;;;;;;-143.90;100.00;65065.84;6244829;23;20019;-78
2023/10/14 07:16:35;;;;;;;13.27;3.08;;;;;;;-143.90;100.00;65065.84;6262306;22;20016;-76
2023/10/14 07:19:00;;;;;;;8.73;2.55;;;;;;;-143.90;100.00;65065.84;6244549;22;20013;-77
2023/10/14 07:24:47;;;;;;;13.18;2.67;;;;;;;-143.90;100.00;65065.84;6244576;23;20026;-77
2023/10/14 07:30:38;;;;;;;10.50;2.38;;;;;;;-143.90;100.00;65065.84;6244313;22;20476;-77
2023/10/14 07:36:25;;;;;;;9.32;2.50;;;;;;;-143.90;100.00;65065.84;6244474;23;20018;-77
2023/10/14 07:42:13;;;;;;;13.57;2.70;;;;;;;-143.90;100.00;65065.84;6244996;23;20519;-77
2023/10/14 07:48:10;;;;;;;14.18;4.03;;;;;;;-143.90;100.00;65065.84;6244575;23;20059;-76
2023/10/14 07:53:57;;;;;;;15.68;3.55;;;;;;;-143.90;100.00;65065.84;6244595;23;20019;-77
2023/10/14 07:59:43;;;;;;;12.73;3.33;;;;;;;-143.90;100.00;65065.84;6244247;22;20023;-76
2023/10/14 08:05:34;;;;;;;10.88;3.00;;;;;;;-143.90;100.00;65065.84;6244404;23;20082;-77
2023/10/14 08:11:22;;;;;;;12.95;3.10;;;;;;;-143.90;100.00;65065.84;6244844;23;20019;-79
2023/10/14 08:17:11;;;;;;;10.00;2.65;;;;;;;-143.90;100.00;65065.84;6244353;23;20063;-78
2023/10/14 08:22:59;;;;;;;16.08;3.00;;;;;;;-143.90;100.00;65065.84;6244685;23;20039;-77
2023/10/14 08:28:46;;;;;;;15.00;2.72;;;;;;;-143.90;100.00;65065.84;6245208;22;20061;-78
2023/10/14 08:34:33;;;;;;;10.90;2.60;;;;;;;-143.90;100.00;65065.84;6245114;23;20015;-77
2023/10/14 08:40:22;;;;;;;7.38;2.85;;;;;;;-143.90;100.00;65065.84;6245215;22;20372;-76
2023/10/14 08:46:10;;;;;;;14.35;3.42;;;;;;;-143.90;100.00;65065.84;6244229;23;20063;-77
2023/10/14 08:51:58;;;;;;;10.95;2.88;;;;;;;-143.90;100.00;65065.84;6243280;23;20506;-76
2023/10/14 08:57:46;;;;;;;11.75;2.42;;;;;;;-143.90;100.00;65065.84;6244415;23;20389;-77
2023/10/14 09:07:00;;;;;;;13.90;3.05;;;;;;;-143.90;100.00;65065.84;6244231;23;20015;-74
2023/10/14 09:13:04;;;;;;;8.98;2.42;;;;;;;-143.90;100.00;65065.84;6244148;23;20018;-78
2023/10/14 09:18:58;;;;;;;8.73;2.53;;;;;;;-143.90;100.00;65065.84;6244017;22;20095;-78
2023/10/14 09:24:27;;;;;;;13.53;2.93;;;;;;;-143.90;100.00;65065.84;6244124;23;19944;-77
2023/10/14 09:30:18;;;;;;;10.57;3.22;;;;;;;-143.90;100.00;65065.84;6243168;23;20527;-79
2023/10/14 09:36:14;;;;;;;9.75;3.30;;;;;;;-143.90;100.00;65065.84;6244091;23;20556;-79
2023/10/14 09:42:02;;;;;;;11.80;3.30;;;;;;;-143.90;100.00;65065.84;6243895;23;20510;-78
2023/10/14 09:47:52;;;;;;;10.63;2.78;;;;;;;-143.90;100.00;65065.84;6244089;23;20456;-79
2023/10/14 09:53:39;;;;;;;9.10;2.85;;;;;;;-143.90;100.00;65065.84;6243877;23;20177;-76
2023/10/14 09:59:29;;;;;;;11.77;3.35;;;;;;;-143.90;100.00;65065.84;6244009;23;20023;-79
2023/10/14 10:05:23;;;;;;;11.20;3.17;;;;;;;-143.90;100.00;65065.84;6243882;23;20070;-76
2023/10/14 10:14:42;;;;;;;12.05;3.03;;;;;;;-143.90;100.00;65065.84;6243718;23;20059;-76
2023/10/14 10:20:35;;;;;;;10.55;2.50;;;;;;;-143.90;100.00;65065.84;6243532;23;20012;-76
2023/10/14 10:26:23;;;;;;;7.68;2.28;;;;;;;-143.90;100.00;65065.84;6243703;22;20072;-75
2023/10/14 10:28:48;;;;;;;6.45;2.25;;;;;;;-143.90;100.00;65065.84;6261217;22;20004;-75
2023/10/14 10:35:06;;;;;;;9.57;2.63;;;;;;;-143.90;100.00;65065.84;6243449;23;20054;-75
2023/10/14 10:41:18;;;;;;;5.60;2.17;;;;;;;-143.90;100.00;65065.84;6243460;23;20022;-77
2023/10/14 10:47:09;;;;;;;7.03;2.05;;;;;;;-143.90;100.00;65065.84;6243420;23;20015;-75
2023/10/14 10:53:08;;;;;;;7.13;2.40;;;;;;;-143.90;100.00;65065.84;6242783;22;20015;-76
2023/10/14 10:59:01;;;;;;;8.95;2.97;;;;;;;-143.90;100.00;65065.84;6245212;23;20039;-74
2023/10/14 11:04:48;;;;;;;8.27;2.55;;;;;;;-143.90;100.00;65065.84;6244564;23;20146;-77
2023/10/14 11:10:42;;;;;;;10.25;2.80;;;;;;;-143.90;100.00;65065.84;6247584;23;20082;-79
2023/10/14 11:16:30;;;;;;;9.77;2.67;;;;;;;-143.90;100.00;65065.84;6246712;23;20396;-76
2023/10/14 11:22:17;;;;;;;14.18;2.63;;;;;;;-143.90;100.00;65065.84;6246833;22;20019;-76
2023/10/14 11:28:05;;;;;;;11.20;2.75;;;;;;;-143.90;100.00;65065.84;6246329;23;20341;-76
2023/10/14 11:33:55;;;;;;;9.88;2.92;;;;;;;-143.90;100.00;65065.84;6246270;23;20038;-77
2023/10/14 11:39:42;;;;;;;14.05;3.03;;;;;;;-143.90;100.00;65065.84;6246308;23;20067;-74
2023/10/14 11:45:31;;;;;;;11.63;3.05;;;;;;;-143.90;100.00;65065.84;6244875;23;20058;-75
2023/10/14 11:51:19;;;;;;;18.13;2.85;;;;;;;-143.90;100.00;65065.84;6244495;22;20027;-76
2023/10/14 11:57:07;;;;;;;7.03;2.45;;;;;;;-143.90;100.00;65065.84;6244528;23;20015;-75
2023/10/14 12:02:54;;;;;;;8.73;2.20;;;;;;;-143.90;100.00;65065.84;6244331;22;20620;-77
2023/10/14 12:08:42;;;;;;;9.70;2.30;;;;;;;-143.90;100.00;65065.84;6247846;23;20073;-74
2023/10/14 12:14:29;;;;;;;11.10;2.72;;;;;;;-143.90;100.00;65065.84;6245320;23;20092;-75
2023/10/14 12:20:16;;;;;;;8.68;2.47;;;;;;;-143.90;100.00;65065.84;6246523;23;20018;-76
2023/10/14 12:26:04;;;;;;;8.45;2.47;;;;;;;-143.90;100.00;65065.84;6245258;23;20050;-75
2023/10/14 12:31:51;;;;;;;14.68;3.33;;;;;;;-143.90;100.00;65065.84;6244428;22;20502;-75
2023/10/14 12:37:38;;;;;;;11.63;2.65;;;;;;;-143.90;100.00;65065.84;6245277;23;20022;-75
2023/10/14 12:43:39;;;;;;;8.65;2.75;;;;;;;-143.90;100.00;65065.84;6245757;23;20069;-75
2023/10/14 12:49:26;;;;;;;7.85;2.67;;;;;;;-143.90;100.00;65065.84;6244593;23;20019;-76
2023/10/14 12:55:22;;;;;;;7.32;2.05;;;;;;;-143.90;100.00;65065.84;6244444;23;20241;-76
2023/10/14 13:01:16;;;;;;;7.00;3.05;;;;;;;-143.90;100.00;65065.84;6244175;22;20034;-76
2023/10/14 13:07:08;;;;;;;4.45;1.77;;;;;;;-143.90;100.00;65065.84;6244324;23;20034;-76
2023/10/14 13:12:57;;;;;;;8.13;2.22;;;;;;;-143.90;100.00;65065.84;6244497;22;20062;-77
2023/10/14 13:18:45;;;;;;;4.93;1.63;;;;;;;-143.90;100.00;65065.84;6244160;23;20035;-75
2023/10/14 13:24:32;;;;;;;9.40;2.20;;;;;;;-143.90;100.00;65065.84;6244438;23;20070;-77
2023/10/14 13:30:23;;;;;;;7.75;2.00;;;;;;;-143.90;100.00;65065.84;6244198;22;20074;-76
2023/10/14 13:36:10;;;;;;;10.07;3.42;;;;;;;-143.90;100.00;65065.84;6244093;23;20011;-76
2023/10/14 13:41:57;;;;;;;7.80;2.42;;;;;;;-143.90;100.00;65065.84;6244191;22;20242;-76
2023/10/14 13:47:45;;;;;;;11.32;2.60;;;;;;;-143.90;100.00;65065.84;6243967;23;20254;-77
2023/10/14 13:53:33;;;;;;;6.13;2.15;;;;;;;-143.90;100.00;65065.84;6242790;23;20097;-77
2023/10/14 13:59:21;;;;;;;12.90;2.65;;;;;;;-143.90;100.00;65065.84;6243819;23;20471;-78
2023/10/14 14:05:08;;;;;;;5.85;1.73;;;;;;;-143.90;100.00;65065.84;6244317;23;20349;-79
2023/10/14 14:11:00;;;;;;;4.13;1.60;;;;;;;-143.90;100.00;65065.84;6243704;22;20066;-76
2023/10/14 14:16:47;;;;;;;5.10;1.92;;;;;;;-143.90;100.00;65065.84;6243712;23;20441;-77
2023/10/14 14:22:35;;;;;;;7.32;1.70;;;;;;;-143.90;100.00;65065.84;6244225;22;20388;-77
2023/10/14 14:28:23;;;;;;;4.43;1.85;;;;;;;-143.90;100.00;65065.84;6243954;23;20022;-77
2023/10/14 14:34:09;;;;;;;6.03;2.10;;;;;;;-143.90;100.00;65065.84;6243722;23;20046;-79
2023/10/14 14:39:56;;;;;;;7.60;2.08;;;;;;;-143.90;100.00;65065.84;6244433;23;20070;-78
2023/10/14 14:45:44;;;;;;;5.65;1.83;;;;;;;-143.90;100.00;65065.84;6245045;23;20250;-79
2023/10/14 14:51:31;;;;;;;7.43;1.98;;;;;;;-143.90;100.00;65065.84;6245387;22;20345;-77
2023/10/14 14:57:18;;;;;;;5.95;2.00;;;;;;;-143.90;100.00;65065.84;6245764;23;20246;-78
2023/10/14 15:03:10;;;;;;;9.77;2.50;;;;;;;-143.90;100.00;65065.84;6244435;22;20070;-77
2023/10/14 15:08:58;;;;;;;7.85;2.10;;;;;;;-143.90;100.00;65065.84;6245509;23;20032;-76
2023/10/14 15:14:45;;;;;;;9.75;2.47;;;;;;;-143.90;100.00;65065.84;6245896;23;20047;-76
2023/10/14 15:17:11;;;;;;;10.55;1.88;;;;;;;-143.90;100.00;65065.84;6243495;22;20012;-77
2023/10/14 15:22:59;;;;;;;6.85;1.70;;;;;;;-143.90;100.00;65065.84;6245491;22;20446;-77
2023/10/14 15:29:05;;;;;;;9.68;2.70;;;;;;;-143.90;100.00;65065.84;6255493;23;20066;-76
2023/10/14 15:34:52;;;;;;;5.90;1.80;;;;;;;-143.90;100.00;65065.84;6245392;23;20443;-76
2023/10/14 15:40:47;;;;;;;7.78;2.22;;;;;;;-143.90;100.00;65065.84;6245277;23;20373;-76
2023/10/14 15:46:33;;;;;;;5.90;2.38;;;;;;;-143.90;100.00;65065.84;6245237;23;20070;-76
2023/10/14 15:52:20;;;;;;;6.82;2.15;;;;;;;-143.90;100.00;65065.84;6245187;22;20448;-77
2023/10/14 15:58:07;;;;;;;7.35;1.88;;;;;;;-143.90;100.00;65065.84;6245238;23;20022;-76
2023/10/14 16:03:54;;;;;;;7.25;2.47;;;;;;;-143.90;100.00;65065.84;6245053;22;20073;-77
2023/10/14 16:09:41;;;;;;;9.60;2.28;;;;;;;-143.90;100.00;65065.84;6246387;23;20037;-76
2023/10/14 16:15:30;;;;;;;6.80;2.00;;;;;;;-143.90;100.00;65065.84;6246844;23;20361;-77
2023/10/14 16:21:17;;;;;;;7.43;2.28;;;;;;;-143.90;100.00;65065.84;6246978;22;20349;-78
2023/10/14 16:27:04;;;;;;;9.93;2.35;;;;;;;-143.90;100.00;65065.84;6245416;23;20336;-75
2023/10/14 16:32:52;;;;;;;6.57;2.38;;;;;;;-143.90;100.00;65065.84;6246756;22;20071;-76
2023/10/14 16:38:43;;;;;;;6.93;2.17;;;;;;;-143.90;100.00;65065.84;6245810;23;20135;-74
2023/10/14 16:44:30;;;;;;;7.60;1.90;;;;;;;-143.90;100.00;65065.84;6246330;22;20023;-76
2023/10/14 16:50:24;;;;;;;7.70;2.30;;;;;;;-143.90;100.00;65065.84;6245847;23;20019;-76
2023/10/14 16:59:32;;;;;;;6.88;2.17;;;;;;;-143.90;100.00;65065.84;6245662;23;20066;-75
2023/10/14 17:05:23;;;;;;;6.85;1.90;;;;;;;-143.90;100.00;65065.84;6245970;23;20729;-76
2023/10/14 17:11:10;;;;;;;7.88;2.63;;;;;;;-143.90;100.00;65065.84;6246253;22;20141;-76
2023/10/14 17:16:57;;;;;;;5.60;2.30;;;;;;;-143.90;100.00;65065.84;6246357;23;20015;-76
2023/10/14 17:22:47;;;;;;;10.75;2.67;;;;;;;-143.90;100.00;65065.84;6245802;23;20107;-73
2023/10/14 17:28:34;;;;;;;6.93;2.17;;;;;;;-143.90;100.00;65065.84;6245814;23;20387;-75
2023/10/14 17:34:21;;;;;;;8.32;2.80;;;;;;;-143.90;100.00;65065.84;6245841;23;20020;-75
2023/10/14 17:40:13;;;;;;;9.45;2.30;;;;;;;-143.90;100.00;65065.84;6245591;22;20027;-77
2023/10/14 17:46:03;;;;;;;10.20;2.38;;;;;;;-143.90;100.00;65065.84;6245349;23;20250;-75
2023/10/14 17:51:51;;;;;;;10.23;2.53;;;;;;;-143.90;100.00;65065.84;6245402;22;20427;-74
2023/10/14 17:57:43;;;;;;;6.50;2.10;;;;;;;-143.90;100.00;65065.84;6245467;23;20047;-76
2023/10/14 18:03:31;;;;;;;9.45;2.35;;;;;;;-143.90;100.00;65065.84;6245364;23;20444;-73
2023/10/14 18:05:57;;;;;;;7.40;2.58;;;;;;;-143.90;100.00;65065.84;6262568;22;20012;-76
2023/10/14 18:11:44;;;;;;;13.88;3.15;;;;;;;-143.90;100.00;65065.84;6244796;22;20027;-75
2023/10/14 18:17:32;;;;;;;8.13;3.70;;;;;;;-143.90;100.00;65065.84;6245755;23;20070;-76
2023/10/14 18:23:20;;;;;;;9.90;2.85;;;;;;;-143.90;100.00;65065.84;6245885;22;20107;-75
2023/10/14 18:29:07;;;;;;;10.57;2.75;;;;;;;-143.90;100.00;65065.84;6245857;23;20061;-74
2023/10/14 18:34:55;;;;;;;11.15;3.20;;;;;;;-143.90;100.00;65065.84;6246227;23;20019;-75
2023/10/14 18:40:44;;;;;;;9.25;3.22;;;;;;;-143.90;100.00;65065.84;6246425;23;20027;-74
2023/10/14 18:49:53;;;;;;;11.68;2.72;;;;;;;-143.90;100.00;65065.84;6245753;23;20075;-75
2023/10/14 18:55:50;;;;;;;6.53;2.40;;;;;;;-143.90;100.00;65065.84;6244878;23;20086;-76
2023/10/14 19:01:37;;;;;;;9.93;3.50;;;;;;;-143.90;100.00;65065.84;6244996;22;20039;-75
2023/10/14 19:07:24;;;;;;;9.05;2.95;;;;;;;-143.90;100.00;65065.84;6244901;23;20058;-74
2023/10/14 19:13:11;;;;;;;10.13;3.03;;;;;;;-143.90;100.00;65065.84;6244960;23;20027;-75
2023/10/14 19:18:58;;;;;;;6.82;2.40;;;;;;;-143.90;100.00;65065.84;6244735;23;20074;-76
2023/10/14 19:24:46;;;;;;;5.10;2.55;;;;;;;-143.90;100.00;65065.84;6244815;23;20027;-75
2023/10/14 19:30:34;;;;;;;6.70;2.38;;;;;;;-143.90;100.00;65065.84;6244869;22;20073;-76
2023/10/14 19:36:21;;;;;;;9.25;2.50;;;;;;;-143.90;100.00;65065.84;6245364;23;20027;-75
2023/10/14 19:38:48;;;;;;;8.55;2.50;;;;;;;-143.90;100.00;65065.84;6243799;22;20016;-75
2023/10/14 19:44:35;;;;;;;6.90;2.30;;;;;;;-143.90;100.00;65065.84;6243930;23;20019;-74
2023/10/14 19:50:22;;;;;;;9.77;2.92;;;;;;;-143.90;100.00;65065.84;6244716;23;20023;-76
2023/10/14 19:59:34;;;;;;;5.13;2.60;;;;;;;-143.90;100.00;65065.84;6244648;23;20062;-77
2023/10/14 20:05:22;;;;;;;7.53;2.40;;;;;;;-143.90;100.00;65065.84;6244758;23;20027;-77
2023/10/14 20:11:10;;;;;;;9.80;2.53;;;;;;;-143.90;100.00;65065.84;6244986;22;20031;-76
2023/10/14 20:16:57;;;;;;;7.88;3.10;;;;;;;-143.90;100.00;65065.84;6244652;23;20348;-75
2023/10/14 20:22:46;;;;;;;8.75;3.03;;;;;;;-143.90;100.00;65065.84;6244653;22;20070;-74
2023/10/14 20:28:33;;;;;;;9.05;3.13;;;;;;;-143.90;100.00;65065.84;6244652;23;20011;-75
2023/10/14 20:34:20;;;;;;;5.32;3.08;;;;;;;-143.90;100.00;65065.84;6244860;23;20082;-77
2023/10/14 20:40:07;;;;;;;7.68;3.80;;;;;;;-143.90;100.00;65065.84;6244557;22;20437;-76
2023/10/14 20:45:54;;;;;;;8.73;3.15;;;;;;;-143.90;100.00;65065.84;6244351;23;20026;-75
2023/10/14 20:51:41;;;;;;;8.20;3.17;;;;;;;-143.90;100.00;65065.84;6244386;22;20409;-76
2023/10/14 20:57:30;;;;;;;6.75;2.72;;;;;;;-143.90;100.00;65065.84;6244253;23;20019;-76
2023/10/14 21:03:20;;;;;;;12.75;3.47;;;;;;;-143.90;100.00;65065.84;6244274;22;20027;-77
2023/10/14 21:09:09;;;;;;;11.65;4.07;;;;;;;-143.90;100.00;65065.84;6244227;23;20459;-77
2023/10/14 21:14:57;;;;;;;7.50;3.70;;;;;;;-143.90;100.00;65065.84;6244595;23;20043;-79
2023/10/14 21:20:46;;;;;;;8.68;3.95;;;;;;;-143.90;100.00;65065.84;6244295;22;20051;-77
2023/10/14 21:26:35;;;;;;;9.23;3.63;;;;;;;-143.90;100.00;65065.84;6244286;23;20455;-78
2023/10/14 21:32:23;;;;;;;10.35;3.80;;;;;;;-143.90;100.00;65065.84;6244711;22;20026;-78
2023/10/14 21:38:12;;;;;;;12.55;3.60;;;;;;;-143.90;100.00;65065.84;6244175;23;20058;-78
2023/10/14 21:43:59;;;;;;;11.07;3.67;;;;;;;-143.90;100.00;65065.84;6242973;23;20460;-77
2023/10/14 21:49:45;;;;;;;13.48;4.47;;;;;;;-143.90;100.00;65065.84;6243470;23;20436;-78
2023/10/14 21:55:40;;;;;;;9.40;3.70;;;;;;;-143.90;100.00;65065.84;6244494;23;20023;-77
2023/10/14 22:01:27;;;;;;;10.40;3.40;;;;;;;-143.90;100.00;65065.84;6244087;22;20035;-79
2023/10/14 22:07:15;;;;;;;8.07;3.88;;;;;;;-143.90;100.00;65065.84;6243998;23;20023;-78
2023/10/14 22:13:05;;;;;;;8.00;3.38;;;;;;;-143.90;100.00;65065.84;6244273;22;20038;-77
2023/10/14 22:15:30;;;;;;;7.78;3.90;;;;;;;-143.90;100.00;65065.84;6267424;22;20000;-77
2023/10/14 22:18:00;;;;;;;6.85;3.13;;;;;;;-143.90;100.00;65065.84;6242733;22;20065;-77
2023/10/14 22:23:48;;;;;;;9.07;3.33;;;;;;;-143.90;100.00;65065.84;6242919;22;20058;-78
2023/10/14 22:29:35;;;;;;;7.07;3.20;;;;;;;-143.90;100.00;65065.84;6243752;23;20019;-78
2023/10/14 22:32:01;;;;;;;9.38;4.05;;;;;;;-143.90;100.00;65065.84;6242876;22;20012;-78
2023/10/14 22:37:49;;;;;;;11.00;3.80;;;;;;;-143.90;100.00;65065.84;6242696;22;20105;-77
2023/10/14 22:43:36;;;;;;;7.40;3.53;;;;;;;-143.90;100.00;65065.84;6245856;23;20019;-77
2023/10/14 22:52:55;;;;;;;6.88;3.75;;;;;;;-143.90;100.00;65065.84;6243431;23;20099;-77
2023/10/14 22:58:41;;;;;;;8.70;4.63;;;;;;;-143.90;100.00;65065.84;6243535;23;20042;-76
2023/10/14 23:04:29;;;;;;;11.13;5.15;;;;;;;-143.90;100.00;65065.84;6244876;22;20030;-78
2023/10/14 23:10:19;;;;;;;14.50;4.82;;;;;;;-143.90;100.00;65065.84;6245154;23;20070;-77
2023/10/14 23:16:06;;;;;;;11.63;4.32;;;;;;;-143.90;100.00;65065.84;6244801;23;20392;-78
2023/10/14 23:21:53;;;;;;;9.55;4.85;;;;;;;-143.90;100.00;65065.84;6244678;23;20019;-76
2023/10/14 23:31:12;;;;;;;7.80;4.57;;;;;;;-143.90;100.00;65065.84;6245419;23;20015;-78
2023/10/14 23:36:59;;;;;;;7.88;4.57;;;;;;;-143.90;100.00;65065.84;6245225;23;20035;-76
2023/10/14 23:42:47;;;;;;;12.27;5.03;;;;;;;-143.90;100.00;65065.84;6244938;22;20018;-78
2023/10/14 23:48:35;;;;;;;15.80;7.07;;;;;;;-143.90;100.00;65065.84;6245125;23;20056;-78
2023/10/14 23:54:23;;;;;;;13.05;4.97;;;;;;;-143.90;100.00;65065.84;6245359;23;20373;-77
